Time;durP1;ratioP1;P1;durP2;ratioP2;P2;SDS_P1;SDS_P2;PMS_P1;PMS_P2;Temp;Humidity;BMP_temperature;BMP_pressure;BME280_temperature;BME280_humidity;BME280_pressure;Samples;Min_cycle;Max_cycle;Signal;HPM_P1;HPM_P2
2022/12/20 00:01:27;;;;;;;28.40;18.73;;;;;;;;;;4884343;29;20049;-59
2022/12/20 00:03:54;;;;;;;26.75;17.00;;;;;;;;;;4884011;29;20481;-60
2022/12/20 00:06:21;;;;;;;29.13;17.98;;;;;;;;;;4883801;29;20044;-61
2022/12/20 00:08:52;;;;;;;25.60;17.67;;;;;;;;;;4883934;29;20044;-59
2022/12/20 00:11:18;;;;;;;29.48;18.27;;;;;;;;;;4884449;29;20136;-60
2022/12/20 00:13:45;;;;;;;28.05;18.85;;;;;;;;;;4884095;29;20049;-59
2022/12/20 00:16:13;;;;;;;31.45;19.38;;;;;;;;;;4883311;29;20053;-61
2022/12/20 00:18:41;;;;;;;31.17;19.83;;;;;;;;;;4867127;29;20128;-60
2022/12/20 00:21:08;;;;;;;32.17;19.77;;;;;;;;;;4884033;29;20049;-58
2022/12/20 00:23:35;;;;;;;29.65;18.38;;;;;;;;;;4882673;29;20450;-59
2022/12/20 00:26:07;;;;;;;32.58;19.92;;;;;;;;;;4882188;29;20430;-59
2022/12/20 00:28:34;;;;;;;31.33;18.58;;;;;;;;;;4882614;29;20049;-59
2022/12/20 00:31:02;;;;;;;28.98;17.67;;;;;;;;;;4883678;29;20164;-60
2022/12/20 00:33:32;;;;;;;27.83;17.92;;;;;;;;;;4882727;29;20094;-58
2022/12/20 00:36:00;;;;;;;28.80;18.50;;;;;;;;;;4883272;29;20415;-60
2022/12/20 00:38:26;;;;;;;32.13;19.45;;;;;;;;;;4883799;29;20056;-59
2022/12/20 00:41:05;;;;;;;27.85;17.55;;;;;;;;;;4883747;29;20420;-59
2022/12/20 00:43:32;;;;;;;35.28;21.38;;;;;;;;;;4883678;29;20526;-61
2022/12/20 00:45:59;;;;;;;29.67;18.38;;;;;;;;;;4881997;29;20049;-60
2022/12/20 00:48:26;;;;;;;29.00;18.80;;;;;;;;;;4883729;29;20486;-58
2022/12/20 00:50:56;;;;;;;32.85;18.23;;;;;;;;;;4883473;29;20490;-59
2022/12/20 00:53:23;;;;;;;31.85;18.90;;;;;;;;;;4883527;29;20041;-60
2022/12/20 00:55:52;;;;;;;28.27;17.08;;;;;;;;;;4883150;29;20037;-59
2022/12/20 00:58:18;;;;;;;28.83;17.95;;;;;;;;;;4883403;29;20049;-59
2022/12/20 01:00:45;;;;;;;29.33;17.60;;;;;;;;;;4883586;29;20049;-60
2022/12/20 01:03:21;;;;;;;27.08;16.77;;;;;;;;;;4882636;29;20569;-60
2022/12/20 01:05:49;;;;;;;28.48;16.95;;;;;;;;;;4883050;29;20045;-59
2022/12/20 01:08:16;;;;;;;27.33;18.35;;;;;;;;;;4879197;29;20055;-60
2022/12/20 01:10:42;;;;;;;25.85;16.48;;;;;;;;;;4880713;29;20136;-58
2022/12/20 01:13:09;;;;;;;24.73;16.45;;;;;;;;;;4880809;29;20089;-57
2022/12/20 01:15:35;;;;;;;26.90;16.92;;;;;;;;;;4880274;29;20048;-60
2022/12/20 01:18:02;;;;;;;28.48;16.58;;;;;;;;;;4880008;29;20129;-60
2022/12/20 01:20:28;;;;;;;25.75;16.75;;;;;;;;;;4879261;29;20438;-60
2022/12/20 01:22:55;;;;;;;20.83;13.63;;;;;;;;;;4880186;29;20045;-60
2022/12/20 01:25:21;;;;;;;19.85;13.88;;;;;;;;;;4879985;29;20104;-60
2022/12/20 01:27:48;;;;;;;21.48;13.65;;;;;;;;;;4863599;29;20053;-60
2022/12/20 01:30:15;;;;;;;23.45;14.48;;;;;;;;;;4879355;29;20045;-60
2022/12/20 01:32:41;;;;;;;23.05;14.90;;;;;;;;;;4880327;29;20045;-58
2022/12/20 01:35:08;;;;;;;22.75;14.80;;;;;;;;;;4878067;29;20421;-58
2022/12/20 01:37:34;;;;;;;22.35;13.95;;;;;;;;;;4878259;29;20057;-58
2022/12/20 01:40:01;;;;;;;25.15;15.00;;;;;;;;;;4879738;29;20037;-60
2022/12/20 01:42:27;;;;;;;21.35;13.77;;;;;;;;;;4879637;29;20055;-61
2022/12/20 01:44:55;;;;;;;22.48;14.93;;;;;;;;;;4863016;29;20453;-61
2022/12/20 01:47:22;;;;;;;20.20;13.43;;;;;;;;;;4879334;29;20041;-60
2022/12/20 01:49:49;;;;;;;22.90;14.55;;;;;;;;;;4879785;29;20049;-59
2022/12/20 01:52:23;;;;;;;24.50;13.68;;;;;;;;;;4862782;29;20065;-59
2022/12/20 01:54:50;;;;;;;19.25;13.50;;;;;;;;;;4880131;29;20041;-58
2022/12/20 01:57:19;;;;;;;22.13;13.77;;;;;;;;;;4877795;29;20459;-59
2022/12/20 01:59:46;;;;;;;23.15;14.02;;;;;;;;;;4862923;29;20506;-60
2022/12/20 02:02:13;;;;;;;22.88;14.88;;;;;;;;;;4879565;29;20048;-59
2022/12/20 02:04:40;;;;;;;23.40;13.65;;;;;;;;;;4887455;29;20074;-58
2022/12/20 02:07:07;;;;;;;19.52;13.50;;;;;;;;;;4890976;29;20045;-57
2022/12/20 02:09:34;;;;;;;19.58;13.43;;;;;;;;;;4881929;29;20063;-59
2022/12/20 02:12:01;;;;;;;21.35;13.30;;;;;;;;;;4879329;29;20052;-60
2022/12/20 02:14:35;;;;;;;21.02;13.15;;;;;;;;;;4879228;29;20409;-59
2022/12/20 02:17:07;;;;;;;22.85;13.55;;;;;;;;;;4878508;29;20053;-59
2022/12/20 02:19:52;;;;;;;19.10;13.43;;;;;;;;;;4877690;29;20052;-58
2022/12/20 02:22:26;;;;;;;19.52;12.70;;;;;;;;;;4862846;29;20056;-58
2022/12/20 02:25:04;;;;;;;20.70;12.93;;;;;;;;;;4879339;29;20049;-59
2022/12/20 02:27:38;;;;;;;19.15;12.75;;;;;;;;;;4878930;29;20048;-58
2022/12/20 02:30:18;;;;;;;21.92;14.00;;;;;;;;;;4878059;29;20060;-59
2022/12/20 02:32:51;;;;;;;20.55;13.50;;;;;;;;;;4879743;29;20521;-58
2022/12/20 02:35:25;;;;;;;21.23;13.25;;;;;;;;;;4862137;29;20056;-58
2022/12/20 02:37:54;;;;;;;19.10;12.45;;;;;;;;;;4877552;29;20537;-58
2022/12/20 02:40:22;;;;;;;19.70;12.52;;;;;;;;;;4877663;29;20497;-59
2022/12/20 02:42:51;;;;;;;19.13;12.90;;;;;;;;;;4862162;29;20045;-58
2022/12/20 02:45:20;;;;;;;24.60;13.73;;;;;;;;;;4876954;29;20049;-59
2022/12/20 02:47:48;;;;;;;23.13;13.35;;;;;;;;;;4846860;29;20473;-58
2022/12/20 02:50:17;;;;;;;23.85;13.32;;;;;;;;;;4877229;29;20080;-57
2022/12/20 02:52:43;;;;;;;20.40;13.25;;;;;;;;;;4877619;29;20147;-57
2022/12/20 02:55:11;;;;;;;21.27;13.85;;;;;;;;;;4876923;29;20510;-59
2022/12/20 02:57:50;;;;;;;21.50;12.70;;;;;;;;;;4878708;29;20097;-59
2022/12/20 03:00:27;;;;;;;19.60;12.43;;;;;;;;;;4861703;29;20045;-59
2022/12/20 03:05:44;;;;;;;21.05;13.18;;;;;;;;;;4876570;29;20041;-59
2022/12/20 03:08:10;;;;;;;23.42;13.80;;;;;;;;;;4877152;29;20056;-59
2022/12/20 03:10:37;;;;;;;19.25;11.93;;;;;;;;;;4861494;29;20049;-59
2022/12/20 03:13:03;;;;;;;17.08;12.13;;;;;;;;;;4877300;29;20072;-60
2022/12/20 03:15:33;;;;;;;20.02;11.77;;;;;;;;;;4860810;29;20049;-60
2022/12/20 03:18:01;;;;;;;20.80;12.18;;;;;;;;;;4876653;29;20091;-59
2022/12/20 03:20:28;;;;;;;16.55;10.90;;;;;;;;;;4876742;29;20052;-59
2022/12/20 03:22:54;;;;;;;15.77;10.63;;;;;;;;;;4877048;29;20577;-59
2022/12/20 03:25:21;;;;;;;25.70;14.48;;;;;;;;;;4877360;29;20056;-60
2022/12/20 03:27:48;;;;;;;15.48;10.73;;;;;;;;;;4877806;29;20053;-59
2022/12/20 03:30:16;;;;;;;14.88;9.82;;;;;;;;;;4845421;29;20108;-59
2022/12/20 03:32:42;;;;;;;16.63;9.55;;;;;;;;;;4876762;29;20049;-60
2022/12/20 03:35:10;;;;;;;11.95;8.38;;;;;;;;;;4877630;29;20037;-59
2022/12/20 03:37:39;;;;;;;17.40;9.77;;;;;;;;;;4876586;29;20582;-58
2022/12/20 03:40:07;;;;;;;12.20;8.25;;;;;;;;;;4878010;29;20092;-60
2022/12/20 03:42:33;;;;;;;12.90;8.13;;;;;;;;;;4876747;29;20059;-59
2022/12/20 03:44:59;;;;;;;14.50;7.88;;;;;;;;;;4877713;29;20041;-59
2022/12/20 03:47:28;;;;;;;12.73;7.32;;;;;;;;;;4876622;29;20049;-58
2022/12/20 03:49:55;;;;;;;11.40;7.35;;;;;;;;;;4861147;29;20063;-59
2022/12/20 03:52:22;;;;;;;13.48;8.02;;;;;;;;;;4876253;29;20466;-58
2022/12/20 03:54:48;;;;;;;11.35;8.43;;;;;;;;;;4876260;29;20053;-58
2022/12/20 03:57:20;;;;;;;13.18;8.15;;;;;;;;;;4877139;29;20100;-58
2022/12/20 03:59:49;;;;;;;13.75;7.22;;;;;;;;;;4861489;29;20037;-59
2022/12/20 04:02:17;;;;;;;15.70;7.95;;;;;;;;;;4876712;29;20045;-58
2022/12/20 04:04:44;;;;;;;11.30;7.55;;;;;;;;;;4861455;29;20563;-59
2022/12/20 04:07:11;;;;;;;14.73;8.98;;;;;;;;;;4877549;29;20074;-59
2022/12/20 04:09:41;;;;;;;14.93;9.25;;;;;;;;;;4846580;29;20037;-59
2022/12/20 04:12:10;;;;;;;12.90;8.45;;;;;;;;;;4877006;29;20060;-58
2022/12/20 04:14:38;;;;;;;14.77;9.20;;;;;;;;;;4876873;29;20430;-58
2022/12/20 04:17:05;;;;;;;15.45;9.25;;;;;;;;;;4860754;29;20059;-60
2022/12/20 04:19:32;;;;;;;14.85;9.65;;;;;;;;;;4861292;29;20041;-60
2022/12/20 04:22:00;;;;;;;12.43;8.80;;;;;;;;;;4876786;29;20144;-60
2022/12/20 04:24:44;;;;;;;15.45;9.93;;;;;;;;;;4861399;29;20084;-60
2022/12/20 04:27:32;;;;;;;15.23;9.00;;;;;;;;;;4876746;29;20506;-60
2022/12/20 04:30:00;;;;;;;16.23;9.70;;;;;;;;;;4876806;29;20049;-60
2022/12/20 04:32:26;;;;;;;17.98;9.43;;;;;;;;;;4876580;29;20072;-60
2022/12/20 04:34:52;;;;;;;16.05;9.80;;;;;;;;;;4861532;29;20410;-60
2022/12/20 04:37:19;;;;;;;17.23;7.55;;;;;;;;;;4876086;29;20529;-60
2022/12/20 04:39:50;;;;;;;14.80;9.55;;;;;;;;;;4861148;29;20084;-60
2022/12/20 04:42:19;;;;;;;16.48;10.10;;;;;;;;;;4863523;29;20049;-60
2022/12/20 04:44:47;;;;;;;16.45;10.20;;;;;;;;;;4849581;29;20045;-60
2022/12/20 04:47:18;;;;;;;15.13;9.98;;;;;;;;;;4879618;29;20069;-60
2022/12/20 04:49:45;;;;;;;15.60;10.40;;;;;;;;;;4880107;29;20049;-60
2022/12/20 04:54:57;;;;;;;16.88;10.93;;;;;;;;;;4880864;29;20045;-60
2022/12/20 04:57:28;;;;;;;15.63;9.93;;;;;;;;;;4879830;29;20081;-60
2022/12/20 04:59:54;;;;;;;16.92;9.85;;;;;;;;;;4864225;29;20049;-60
2022/12/20 05:02:21;;;;;;;13.65;9.70;;;;;;;;;;5264136;23;20049;-61
2022/12/20 05:04:56;;;;;;;17.55;10.77;;;;;;;;;;4883039;29;20048;-60
2022/12/20 05:07:23;;;;;;;15.05;9.43;;;;;;;;;;4882975;29;20135;-61
2022/12/20 05:09:51;;;;;;;12.10;7.85;;;;;;;;;;4883129;29;20560;-61
2022/12/20 05:12:18;;;;;;;15.45;8.90;;;;;;;;;;4899710;29;20299;-61
2022/12/20 05:14:44;;;;;;;12.23;8.60;;;;;;;;;;4882699;29;20056;-61
2022/12/20 05:17:14;;;;;;;14.27;9.05;;;;;;;;;;4882800;29;20072;-61
2022/12/20 05:19:40;;;;;;;13.43;8.85;;;;;;;;;;4882586;29;20143;-61
2022/12/20 05:27:52;;;;;;;14.45;8.55;;;;;;;;;;4882572;29;20417;-61
2022/12/20 05:30:22;;;;;;;12.63;8.32;;;;;;;;;;4882395;29;20052;-61
2022/12/20 05:32:48;;;;;;;13.65;8.15;;;;;;;;;;4882347;29;20111;-60
2022/12/20 05:35:14;;;;;;;11.05;7.00;;;;;;;;;;4881742;29;20109;-60
2022/12/20 05:37:44;;;;;;;13.10;8.05;;;;;;;;;;4882342;29;20517;-60
2022/12/20 05:40:16;;;;;;;11.13;7.93;;;;;;;;;;4882219;29;20051;-60
2022/12/20 05:42:43;;;;;;;12.90;7.38;;;;;;;;;;4882388;29;20386;-60
2022/12/20 05:45:10;;;;;;;12.40;7.28;;;;;;;;;;4898330;29;20040;-60
2022/12/20 05:47:45;;;;;;;12.32;7.72;;;;;;;;;;4882121;29;20525;-60
2022/12/20 05:50:12;;;;;;;9.30;6.90;;;;;;;;;;4898944;29;20537;-60
2022/12/20 05:53:04;;;;;;;12.95;7.93;;;;;;;;;;4897942;29;20052;-60
2022/12/20 05:55:46;;;;;;;12.13;7.65;;;;;;;;;;4881451;29;20112;-60
2022/12/20 05:58:13;;;;;;;13.20;6.95;;;;;;;;;;4881965;29;20048;-60
2022/12/20 06:00:50;;;;;;;9.05;5.22;;;;;;;;;;4882270;29;20413;-60
2022/12/20 06:03:17;;;;;;;10.07;5.93;;;;;;;;;;4881636;29;20100;-60
2022/12/20 06:05:44;;;;;;;11.80;6.57;;;;;;;;;;4881357;29;20500;-60
2022/12/20 06:08:16;;;;;;;9.00;5.93;;;;;;;;;;4881637;29;20510;-60
2022/12/20 06:10:42;;;;;;;12.95;5.97;;;;;;;;;;4881842;29;20052;-60
2022/12/20 06:13:09;;;;;;;9.23;5.95;;;;;;;;;;4882003;29;20052;-60
2022/12/20 06:15:37;;;;;;;10.68;6.40;;;;;;;;;;4880995;29;20053;-60
2022/12/20 06:18:04;;;;;;;13.77;7.65;;;;;;;;;;4866048;29;20667;-60
2022/12/20 06:20:32;;;;;;;11.60;7.85;;;;;;;;;;4881439;29;20468;-60
2022/12/20 06:23:00;;;;;;;15.02;8.02;;;;;;;;;;4866139;29;20498;-61
2022/12/20 06:25:33;;;;;;;8.57;6.35;;;;;;;;;;4880970;29;20052;-61
2022/12/20 06:28:00;;;;;;;8.65;6.40;;;;;;;;;;4881601;29;20101;-60
2022/12/20 06:30:26;;;;;;;14.48;7.03;;;;;;;;;;4866336;29;20513;-60
2022/12/20 06:33:16;;;;;;;12.30;6.50;;;;;;;;;;4881946;29;20056;-61
2022/12/20 06:35:43;;;;;;;12.80;7.20;;;;;;;;;;4865413;29;20049;-60
2022/12/20 06:38:09;;;;;;;10.35;7.13;;;;;;;;;;4898331;29;20072;-61
2022/12/20 06:43:44;;;;;;;18.23;9.60;;;;;;;;;;4881286;29;20045;-60
2022/12/20 06:46:11;;;;;;;13.70;8.77;;;;;;;;;;4880410;29;20045;-60
2022/12/20 06:48:37;;;;;;;11.63;8.18;;;;;;;;;;4897828;29;20056;-60
2022/12/20 06:51:06;;;;;;;15.23;8.45;;;;;;;;;;4881209;29;20135;-60
2022/12/20 06:53:34;;;;;;;12.23;7.72;;;;;;;;;;4897895;29;20050;-61
2022/12/20 06:56:01;;;;;;;9.70;5.78;;;;;;;;;;4880471;29;20054;-60
2022/12/20 06:58:29;;;;;;;12.30;7.10;;;;;;;;;;4880783;29;20052;-61
2022/12/20 07:00:56;;;;;;;10.40;6.40;;;;;;;;;;4880807;29;20520;-60
2022/12/20 07:03:22;;;;;;;11.65;6.43;;;;;;;;;;4897824;29;20040;-61
2022/12/20 07:05:53;;;;;;;10.07;6.60;;;;;;;;;;4896517;29;20147;-61
2022/12/20 07:08:20;;;;;;;11.20;7.15;;;;;;;;;;4897425;29;20505;-59
2022/12/20 07:10:47;;;;;;;11.63;6.75;;;;;;;;;;4880992;29;20060;-60
2022/12/20 07:13:13;;;;;;;12.35;7.40;;;;;;;;;;4897433;29;20528;-61
2022/12/20 07:15:40;;;;;;;10.38;6.10;;;;;;;;;;4896767;29;20148;-60
2022/12/20 07:18:06;;;;;;;10.95;5.72;;;;;;;;;;4880412;29;20056;-60
2022/12/20 07:20:33;;;;;;;11.45;6.57;;;;;;;;;;4897191;29;20445;-60
2022/12/20 07:22:59;;;;;;;8.02;5.57;;;;;;;;;;4880162;29;20041;-60
2022/12/20 07:25:26;;;;;;;9.48;6.05;;;;;;;;;;4896741;29;20041;-61
2022/12/20 07:27:52;;;;;;;8.70;6.00;;;;;;;;;;4880893;29;20045;-61
2022/12/20 07:30:19;;;;;;;11.55;6.63;;;;;;;;;;4897219;29;20048;-61
2022/12/20 07:32:46;;;;;;;16.30;8.00;;;;;;;;;;4897391;29;20324;-61
2022/12/20 07:35:13;;;;;;;12.05;8.30;;;;;;;;;;4896563;29;20056;-61
2022/12/20 07:37:40;;;;;;;11.77;7.22;;;;;;;;;;4880132;29;20060;-61
2022/12/20 07:40:07;;;;;;;12.25;7.85;;;;;;;;;;4880135;29;20116;-61
2022/12/20 07:42:34;;;;;;;11.10;6.75;;;;;;;;;;4880388;29;20060;-61
2022/12/20 07:45:07;;;;;;;9.45;6.15;;;;;;;;;;4896564;29;20059;-61
2022/12/20 07:47:34;;;;;;;6.40;4.75;;;;;;;;;;4880514;29;20036;-61
2022/12/20 07:50:01;;;;;;;5.88;3.55;;;;;;;;;;4897175;29;20100;-61
2022/12/20 07:52:28;;;;;;;7.28;2.90;;;;;;;;;;4897396;29;20413;-61
2022/12/20 07:54:59;;;;;;;4.13;2.72;;;;;;;;;;4897396;29;20051;-61
2022/12/20 07:57:32;;;;;;;4.07;3.10;;;;;;;;;;4880013;29;20055;-61
2022/12/20 08:00:00;;;;;;;4.15;2.80;;;;;;;;;;4897141;29;20053;-61
2022/12/20 08:02:30;;;;;;;7.65;3.42;;;;;;;;;;4896759;29;20043;-61
2022/12/20 08:04:57;;;;;;;5.80;3.10;;;;;;;;;;4897292;29;20397;-61
2022/12/20 08:07:23;;;;;;;5.75;3.53;;;;;;;;;;4896751;29;20265;-61
2022/12/20 08:09:50;;;;;;;5.78;4.05;;;;;;;;;;4896906;29;20438;-62
2022/12/20 08:12:17;;;;;;;10.07;5.05;;;;;;;;;;4879919;29;20124;-61
2022/12/20 08:14:44;;;;;;;11.10;5.38;;;;;;;;;;4896749;29;20502;-61
2022/12/20 08:17:10;;;;;;;8.05;4.75;;;;;;;;;;4881760;29;20045;-61
2022/12/20 08:19:37;;;;;;;7.53;5.35;;;;;;;;;;4900530;29;20047;-61
2022/12/20 08:22:05;;;;;;;6.88;3.88;;;;;;;;;;4883882;29;20040;-61
2022/12/20 08:24:32;;;;;;;8.73;4.70;;;;;;;;;;4900986;29;20500;-61
2022/12/20 08:26:58;;;;;;;9.75;5.53;;;;;;;;;;4883200;29;20576;-61
2022/12/20 08:29:25;;;;;;;7.13;4.35;;;;;;;;;;4900819;29;20044;-61
2022/12/20 08:31:51;;;;;;;7.13;4.25;;;;;;;;;;4900463;29;20040;-60
2022/12/20 08:34:17;;;;;;;10.65;4.97;;;;;;;;;;4900728;29;20573;-61
2022/12/20 08:36:44;;;;;;;9.20;4.45;;;;;;;;;;4883082;29;20661;-61
2022/12/20 08:39:10;;;;;;;6.65;4.30;;;;;;;;;;4900159;29;20052;-61
2022/12/20 08:41:37;;;;;;;6.85;4.50;;;;;;;;;;4883296;29;20044;-62
2022/12/20 08:44:06;;;;;;;5.82;4.28;;;;;;;;;;4883529;29;20131;-62
2022/12/20 08:46:33;;;;;;;6.53;4.35;;;;;;;;;;4899635;29;20048;-61
2022/12/20 08:48:59;;;;;;;9.00;3.85;;;;;;;;;;4883411;29;20139;-61
2022/12/20 08:51:26;;;;;;;4.55;3.33;;;;;;;;;;4883216;29;20151;-62
2022/12/20 08:53:52;;;;;;;6.78;3.72;;;;;;;;;;4899962;29;20076;-61
2022/12/20 08:56:19;;;;;;;4.22;3.25;;;;;;;;;;4899500;29;20048;-62
2022/12/20 08:58:46;;;;;;;6.80;3.88;;;;;;;;;;4899852;29;20068;-61
2022/12/20 09:01:13;;;;;;;4.20;2.88;;;;;;;;;;4882784;29;20049;-61
2022/12/20 09:03:41;;;;;;;3.75;2.60;;;;;;;;;;4899770;29;20409;-61
2022/12/20 09:06:09;;;;;;;6.10;3.15;;;;;;;;;;4899171;29;20039;-61
2022/12/20 09:08:36;;;;;;;5.35;3.47;;;;;;;;;;4899603;29;20045;-61
2022/12/20 09:11:07;;;;;;;4.07;2.65;;;;;;;;;;4882863;29;20052;-61
2022/12/20 09:13:33;;;;;;;2.92;2.15;;;;;;;;;;4899691;29;20068;-61
2022/12/20 09:16:09;;;;;;;3.70;2.08;;;;;;;;;;4899138;29;20123;-61
2022/12/20 09:18:36;;;;;;;4.20;1.80;;;;;;;;;;4899527;29;20458;-61
2022/12/20 09:21:03;;;;;;;2.53;1.67;;;;;;;;;;4899659;29;20060;-61
2022/12/20 09:23:30;;;;;;;2.92;1.50;;;;;;;;;;4899373;29;20048;-61
2022/12/20 09:26:07;;;;;;;2.97;1.70;;;;;;;;;;4898794;29;20124;-62
2022/12/20 09:28:33;;;;;;;2.25;1.55;;;;;;;;;;4898372;29;20040;-62
2022/12/20 09:31:00;;;;;;;2.22;1.48;;;;;;;;;;4899364;29;20059;-62
2022/12/20 09:33:27;;;;;;;2.92;1.95;;;;;;;;;;4899171;29;20064;-61
2022/12/20 09:35:54;;;;;;;2.80;1.40;;;;;;;;;;4899143;29;20045;-62
2022/12/20 09:38:20;;;;;;;3.47;1.50;;;;;;;;;;4899101;29;20053;-62
2022/12/20 09:40:48;;;;;;;2.65;1.40;;;;;;;;;;4899322;29;20040;-61
2022/12/20 09:43:15;;;;;;;2.97;1.63;;;;;;;;;;4899175;29;20401;-62
2022/12/20 09:45:43;;;;;;;3.25;1.83;;;;;;;;;;4881870;29;20041;-62
2022/12/20 09:48:15;;;;;;;1.95;1.52;;;;;;;;;;4867236;29;20447;-62
2022/12/20 09:50:49;;;;;;;3.00;2.10;;;;;;;;;;4899143;29;20051;-62
2022/12/20 09:53:34;;;;;;;3.88;1.80;;;;;;;;;;4899006;29;20077;-62
2022/12/20 09:56:23;;;;;;;2.95;1.80;;;;;;;;;;4881916;29;20462;-62
2022/12/20 09:58:59;;;;;;;2.92;1.65;;;;;;;;;;4889036;29;20057;-62
2022/12/20 10:01:27;;;;;;;2.80;2.03;;;;;;;;;;4898501;29;20044;-63
2022/12/20 10:04:05;;;;;;;2.50;1.60;;;;;;;;;;4898822;29;20040;-62
2022/12/20 10:06:31;;;;;;;4.68;1.70;;;;;;;;;;4898375;29;20382;-63
2022/12/20 10:08:59;;;;;;;2.17;1.65;;;;;;;;;;4882118;29;20040;-63
2022/12/20 10:11:34;;;;;;;1.60;1.50;;;;;;;;;;4898608;29;20052;-63
2022/12/20 10:14:27;;;;;;;2.50;1.35;;;;;;;;;;4898785;29;20045;-63
2022/12/20 10:17:00;;;;;;;6.05;2.17;;;;;;;;;;4898325;29;20083;-61
2022/12/20 10:19:30;;;;;;;3.20;2.47;;;;;;;;;;4866458;29;20057;-61
2022/12/20 10:22:05;;;;;;;3.17;1.80;;;;;;;;;;4898440;29;20299;-62
2022/12/20 10:24:33;;;;;;;2.75;2.33;;;;;;;;;;4898351;29;20041;-62
2022/12/20 10:27:13;;;;;;;2.72;1.90;;;;;;;;;;4897975;29;20081;-63
2022/12/20 10:29:40;;;;;;;2.92;1.60;;;;;;;;;;4881671;29;20108;-62
2022/12/20 10:32:14;;;;;;;3.83;2.63;;;;;;;;;;4898210;29;20502;-63
2022/12/20 10:34:44;;;;;;;3.58;1.70;;;;;;;;;;4881528;29;20104;-62
2022/12/20 10:37:14;;;;;;;1.73;1.58;;;;;;;;;;4897843;29;20052;-62
2022/12/20 10:39:49;;;;;;;4.10;1.92;;;;;;;;;;4897929;29;20405;-63
2022/12/20 10:42:23;;;;;;;2.50;1.92;;;;;;;;;;4898099;29;20563;-63
2022/12/20 10:44:50;;;;;;;3.25;2.38;;;;;;;;;;4898103;29;20390;-62
2022/12/20 10:47:40;;;;;;;2.75;1.75;;;;;;;;;;4897935;29;20041;-63
2022/12/20 10:50:08;;;;;;;3.50;1.73;;;;;;;;;;4898449;29;20040;-63
2022/12/20 10:52:34;;;;;;;2.75;1.80;;;;;;;;;;4882048;29;20045;-62
2022/12/20 10:55:01;;;;;;;1.90;1.33;;;;;;;;;;4898395;29;20049;-62
2022/12/20 10:57:28;;;;;;;3.63;1.77;;;;;;;;;;4881478;29;20052;-63
2022/12/20 11:00:04;;;;;;;3.42;1.50;;;;;;;;;;4881645;29;20045;-62
2022/12/20 11:02:35;;;;;;;2.80;2.10;;;;;;;;;;4897849;29;20048;-63
2022/12/20 11:05:10;;;;;;;3.42;1.85;;;;;;;;;;4897410;29;20055;-62
2022/12/20 11:07:56;;;;;;;4.65;2.13;;;;;;;;;;4897643;29;20052;-63
2022/12/20 11:10:43;;;;;;;2.92;1.70;;;;;;;;;;4897811;29;20076;-62
2022/12/20 11:13:18;;;;;;;2.28;2.05;;;;;;;;;;4880997;29;20561;-63
2022/12/20 11:15:50;;;;;;;3.38;1.80;;;;;;;;;;4880206;29;20119;-62
2022/12/20 11:18:16;;;;;;;4.53;1.63;;;;;;;;;;4897290;29;20074;-63
2022/12/20 11:20:59;;;;;;;5.50;1.88;;;;;;;;;;4865526;29;20116;-63
2022/12/20 11:23:48;;;;;;;3.07;1.93;;;;;;;;;;4897603;29;20040;-63
2022/12/20 11:26:33;;;;;;;3.17;2.00;;;;;;;;;;4897271;29;20275;-63
2022/12/20 11:29:09;;;;;;;3.90;2.20;;;;;;;;;;4897516;29;20464;-62
2022/12/20 11:31:55;;;;;;;2.70;2.05;;;;;;;;;;4897665;29;20048;-63
2022/12/20 11:34:28;;;;;;;3.92;2.20;;;;;;;;;;4897338;29;20068;-62
2022/12/20 11:37:00;;;;;;;4.13;3.22;;;;;;;;;;4897131;29;20049;-61
2022/12/20 11:39:45;;;;;;;2.90;2.60;;;;;;;;;;4897931;29;20505;-62
2022/12/20 11:42:27;;;;;;;4.78;2.25;;;;;;;;;;4897835;29;20050;-62
2022/12/20 11:45:00;;;;;;;2.50;1.90;;;;;;;;;;4897463;29;20056;-60
2022/12/20 11:47:47;;;;;;;3.85;2.05;;;;;;;;;;4882040;29;20689;-62
2022/12/20 11:50:34;;;;;;;2.58;2.35;;;;;;;;;;4880757;29;20136;-62
2022/12/20 11:53:06;;;;;;;3.10;1.63;;;;;;;;;;4880709;29;20557;-62
2022/12/20 11:55:35;;;;;;;4.90;2.47;;;;;;;;;;4880838;29;20429;-62
2022/12/20 11:58:10;;;;;;;3.10;2.10;;;;;;;;;;4897209;29;20425;-62
2022/12/20 12:01:24;;;;;;;5.72;3.20;;;;;;;;;;4897563;29;20105;-62
2022/12/20 12:04:03;;;;;;;5.45;2.60;;;;;;;;;;4821744;29;20571;-63
2022/12/20 12:06:52;;;;;;;4.10;3.13;;;;;;;;;;4821383;29;20106;-63
2022/12/20 12:09:39;;;;;;;15.98;10.45;;;;;;;;;;4875470;29;20089;-63
2022/12/20 12:12:23;;;;;;;15.38;8.88;;;;;;;;;;4897447;29;20044;-63
2022/12/20 12:15:01;;;;;;;67.53;28.83;;;;;;;;;;4897319;29;20044;-63
2022/12/20 12:17:47;;;;;;;31.58;14.70;;;;;;;;;;4898004;29;20045;-61
2022/12/20 12:20:13;;;;;;;;;;;;;;;;;;4881011;29;20501;-62
2022/12/20 12:22:40;;;;;;;17.65;9.63;;;;;;;;;;4897350;29;19924;-62
2022/12/20 12:25:10;;;;;;;4.68;2.70;;;;;;;;;;4896665;29;20056;-61
2022/12/20 12:27:37;;;;;;;5.03;2.53;;;;;;;;;;4897495;29;20049;-62
2022/12/20 12:30:04;;;;;;;3.45;2.10;;;;;;;;;;4897764;29;20055;-62
2022/12/20 12:32:39;;;;;;;2.90;2.03;;;;;;;;;;4898020;29;20572;-62
2022/12/20 12:35:12;;;;;;;3.50;2.50;;;;;;;;;;4897484;29;20124;-62
2022/12/20 12:37:42;;;;;;;4.22;2.47;;;;;;;;;;4897808;29;20108;-62
2022/12/20 12:40:25;;;;;;;3.78;2.00;;;;;;;;;;4881349;29;20057;-62
2022/12/20 12:43:30;;;;;;;2.45;2.25;;;;;;;;;;4897580;29;20051;-61
2022/12/20 12:45:58;;;;;;;2.65;1.83;;;;;;;;;;4820960;29;20050;-62
2022/12/20 12:48:34;;;;;;;3.22;2.03;;;;;;;;;;4806937;29;20046;-63
2022/12/20 12:51:01;;;;;;;4.72;2.22;;;;;;;;;;4863562;29;20068;-62
2022/12/20 12:53:48;;;;;;;3.05;2.42;;;;;;;;;;4898254;29;20561;-62
2022/12/20 12:56:26;;;;;;;3.45;2.08;;;;;;;;;;4897102;29;20049;-62
2022/12/20 12:59:22;;;;;;;2.75;2.08;;;;;;;;;;4897543;29;20045;-61
2022/12/20 13:01:49;;;;;;;2.38;1.85;;;;;;;;;;4865179;29;20565;-63
2022/12/20 13:04:19;;;;;;;2.15;1.90;;;;;;;;;;4901806;29;20068;-63
2022/12/20 13:06:45;;;;;;;6.35;2.92;;;;;;;;;;4884914;29;20049;-63
2022/12/20 13:09:15;;;;;;;4.65;2.65;;;;;;;;;;4901910;29;20040;-62
2022/12/20 13:11:41;;;;;;;10.23;4.55;;;;;;;;;;4901163;29;20036;-62
2022/12/20 13:14:13;;;;;;;16.13;5.35;;;;;;;;;;4901890;29;20048;-63
2022/12/20 13:16:40;;;;;;;15.68;4.97;;;;;;;;;;4901420;29;20410;-63
2022/12/20 13:19:26;;;;;;;14.88;5.07;;;;;;;;;;4900520;29;20132;-63
2022/12/20 13:22:04;;;;;;;17.98;6.80;;;;;;;;;;4900445;29;20048;-62
2022/12/20 13:24:45;;;;;;;10.30;3.78;;;;;;;;;;4900317;29;20045;-61
2022/12/20 13:27:29;;;;;;;5.80;2.70;;;;;;;;;;4900090;29;20045;-62
2022/12/20 13:30:20;;;;;;;4.88;2.10;;;;;;;;;;4900418;29;20055;-62
2022/12/20 13:32:47;;;;;;;9.15;3.20;;;;;;;;;;4889956;29;20477;-62
2022/12/20 13:35:23;;;;;;;13.00;4.60;;;;;;;;;;4899461;29;20096;-62
2022/12/20 13:37:57;;;;;;;20.25;9.40;;;;;;;;;;4883433;29;20052;-63
2022/12/20 13:40:44;;;;;;;11.07;4.57;;;;;;;;;;4900716;29;20057;-63
2022/12/20 13:43:20;;;;;;;7.55;3.60;;;;;;;;;;4899974;29;20060;-62
2022/12/20 13:46:10;;;;;;;8.57;3.20;;;;;;;;;;4900236;29;20048;-62
2022/12/20 13:48:36;;;;;;;7.57;4.10;;;;;;;;;;4865612;29;20466;-62
2022/12/20 13:51:04;;;;;;;4.05;2.60;;;;;;;;;;4900110;29;20104;-63
2022/12/20 13:53:30;;;;;;;4.10;2.67;;;;;;;;;;4882948;29;20048;-62
2022/12/20 13:55:56;;;;;;;4.70;3.60;;;;;;;;;;4899614;29;20044;-63
2022/12/20 13:58:29;;;;;;;8.43;5.28;;;;;;;;;;4899565;29;20056;-61
2022/12/20 14:01:04;;;;;;;5.80;3.90;;;;;;;;;;4899859;29;20056;-61
2022/12/20 14:03:30;;;;;;;11.32;4.72;;;;;;;;;;4900319;29;20052;-63
2022/12/20 14:05:59;;;;;;;7.03;3.20;;;;;;;;;;4899569;29;20044;-62
2022/12/20 14:08:28;;;;;;;5.03;2.60;;;;;;;;;;4883454;29;20052;-62
2022/12/20 14:10:54;;;;;;;4.60;2.70;;;;;;;;;;4899714;29;20109;-62
2022/12/20 14:13:22;;;;;;;2.90;2.33;;;;;;;;;;4883083;29;20560;-62
2022/12/20 14:15:49;;;;;;;4.03;3.40;;;;;;;;;;4882960;29;20041;-62
2022/12/20 14:18:17;;;;;;;5.82;3.63;;;;;;;;;;4884146;29;20051;-62
2022/12/20 14:20:45;;;;;;;5.97;2.95;;;;;;;;;;4900548;29;20045;-62
2022/12/20 14:23:35;;;;;;;3.58;2.30;;;;;;;;;;4883332;29;20040;-62
2022/12/20 14:26:02;;;;;;;6.00;3.05;;;;;;;;;;4889617;29;20057;-63
2022/12/20 14:28:43;;;;;;;5.72;2.40;;;;;;;;;;4900008;29;20053;-63
2022/12/20 14:31:26;;;;;;;5.20;3.05;;;;;;;;;;4899919;29;20554;-62
2022/12/20 14:34:00;;;;;;;5.68;2.42;;;;;;;;;;4899755;29;20044;-62
2022/12/20 14:36:27;;;;;;;3.80;1.90;;;;;;;;;;4900065;29;20059;-62
2022/12/20 14:38:53;;;;;;;3.40;2.15;;;;;;;;;;4899874;29;20044;-62
2022/12/20 14:41:29;;;;;;;7.43;4.40;;;;;;;;;;4899328;29;20045;-61
2022/12/20 14:43:56;;;;;;;4.63;2.90;;;;;;;;;;4899364;29;20107;-62
2022/12/20 14:46:23;;;;;;;5.50;2.55;;;;;;;;;;4898580;29;20048;-61
2022/12/20 14:49:04;;;;;;;4.15;2.80;;;;;;;;;;4899537;29;20120;-62
2022/12/20 14:51:31;;;;;;;4.43;2.55;;;;;;;;;;4899465;29;20052;-60
2022/12/20 14:53:57;;;;;;;3.88;2.42;;;;;;;;;;4898883;29;20051;-62
2022/12/20 14:56:24;;;;;;;4.95;2.60;;;;;;;;;;4898594;29;20501;-60
2022/12/20 14:59:01;;;;;;;4.03;2.50;;;;;;;;;;4898988;29;20049;-60
2022/12/20 15:01:31;;;;;;;3.72;2.80;;;;;;;;;;4898330;29;20334;-60
2022/12/20 15:04:19;;;;;;;3.22;2.22;;;;;;;;;;4898901;29;20405;-63
2022/12/20 15:06:51;;;;;;;4.15;2.70;;;;;;;;;;4898486;29;20454;-60
2022/12/20 15:09:18;;;;;;;5.22;2.80;;;;;;;;;;4898817;29;20079;-61